sensor_id;sensor_type;location;lat;lon;timestamp;P1;durP1;ratioP1;P2;durP2;ratioP2
19191;SDS011;9728;48.194;16.346;2023-06-22T00:03:17;5.20;;;2.40;;
19191;SDS011;9728;48.194;16.346;2023-06-22T00:08:23;2.70;;;1.73;;
19191;SDS011;9728;48.194;16.346;2023-06-22T00:13:26;3.63;;;1.88;;
19191;SDS011;9728;48.194;16.346;2023-06-22T00:18:29;2.67;;;1.55;;
19191;SDS011;9728;48.194;16.346;2023-06-22T00:23:34;2.88;;;1.80;;
19191;SDS011;9728;48.194;16.346;2023-06-22T00:28:38;3.33;;;1.95;;
19191;SDS011;9728;48.194;16.346;2023-06-22T00:33:41;4.13;;;2.22;;
19191;SDS011;9728;48.194;16.346;2023-06-22T00:38:46;3.55;;;2.15;;
19191;SDS011;9728;48.194;16.346;2023-06-22T00:43:52;4.70;;;1.98;;
19191;SDS011;9728;48.194;16.346;2023-06-22T00:48:55;3.58;;;2.05;;
19191;SDS011;9728;48.194;16.346;2023-06-22T00:54:04;4.50;;;2.47;;
19191;SDS011;9728;48.194;16.346;2023-06-22T00:59:08;5.53;;;1.80;;
19191;SDS011;9728;48.194;16.346;2023-06-22T01:04:14;4.13;;;2.22;;
19191;SDS011;9728;48.194;16.346;2023-06-22T01:09:20;3.72;;;1.90;;
19191;SDS011;9728;48.194;16.346;2023-06-22T01:14:27;4.13;;;2.15;;
19191;SDS011;9728;48.194;16.346;2023-06-22T01:19:43;3.90;;;1.75;;
19191;SDS011;9728;48.194;16.346;2023-06-22T01:24:55;4.38;;;1.83;;
19191;SDS011;9728;48.194;16.346;2023-06-22T01:30:09;3.33;;;1.67;;
19191;SDS011;9728;48.194;16.346;2023-06-22T01:35:14;4.28;;;1.75;;
19191;SDS011;9728;48.194;16.346;2023-06-22T01:40:18;2.33;;;1.60;;
19191;SDS011;9728;48.194;16.346;2023-06-22T01:45:27;3.10;;;1.55;;
19191;SDS011;9728;48.194;16.346;2023-06-22T01:50:31;3.85;;;1.90;;
19191;SDS011;9728;48.194;16.346;2023-06-22T01:55:34;5.70;;;2.25;;
19191;SDS011;9728;48.194;16.346;2023-06-22T02:00:40;3.30;;;1.90;;
19191;SDS011;9728;48.194;16.346;2023-06-22T02:05:52;3.05;;;1.80;;
19191;SDS011;9728;48.194;16.346;2023-06-22T02:10:59;1.73;;;1.60;;
19191;SDS011;9728;48.194;16.346;2023-06-22T02:16:06;2.83;;;1.52;;
19191;SDS011;9728;48.194;16.346;2023-06-22T02:21:09;5.55;;;2.38;;
19191;SDS011;9728;48.194;16.346;2023-06-22T02:26:13;3.17;;;1.70;;
19191;SDS011;9728;48.194;16.346;2023-06-22T02:31:19;3.45;;;2.05;;
19191;SDS011;9728;48.194;16.346;2023-06-22T02:36:23;5.78;;;1.98;;
19191;SDS011;9728;48.194;16.346;2023-06-22T02:41:26;2.83;;;1.75;;
19191;SDS011;9728;48.194;16.346;2023-06-22T02:46:31;3.88;;;1.80;;
19191;SDS011;9728;48.194;16.346;2023-06-22T02:51:35;3.33;;;2.00;;
19191;SDS011;9728;48.194;16.346;2023-06-22T02:56:42;3.20;;;1.88;;
19191;SDS011;9728;48.194;16.346;2023-06-22T03:01:47;2.72;;;1.75;;
19191;SDS011;9728;48.194;16.346;2023-06-22T03:06:59;4.38;;;1.90;;
19191;SDS011;9728;48.194;16.346;2023-06-22T03:12:05;2.78;;;1.95;;
19191;SDS011;9728;48.194;16.346;2023-06-22T03:17:18;6.47;;;2.65;;
19191;SDS011;9728;48.194;16.346;2023-06-22T03:22:22;3.55;;;1.60;;
19191;SDS011;9728;48.194;16.346;2023-06-22T03:27:25;3.20;;;2.00;;
19191;SDS011;9728;48.194;16.346;2023-06-22T03:32:30;3.70;;;1.90;;
19191;SDS011;9728;48.194;16.346;2023-06-22T03:37:33;4.07;;;2.10;;
19191;SDS011;9728;48.194;16.346;2023-06-22T03:42:37;2.85;;;1.67;;
19191;SDS011;9728;48.194;16.346;2023-06-22T03:47:41;3.15;;;1.70;;
19191;SDS011;9728;48.194;16.346;2023-06-22T03:52:45;2.80;;;1.80;;
19191;SDS011;9728;48.194;16.346;2023-06-22T03:57:48;2.25;;;1.60;;
19191;SDS011;9728;48.194;16.346;2023-06-22T04:02:53;4.22;;;1.60;;
19191;SDS011;9728;48.194;16.346;2023-06-22T04:07:56;2.60;;;1.65;;
19191;SDS011;9728;48.194;16.346;2023-06-22T04:13:00;2.22;;;1.55;;
19191;SDS011;9728;48.194;16.346;2023-06-22T04:18:05;2.88;;;1.83;;
19191;SDS011;9728;48.194;16.346;2023-06-22T04:23:08;2.40;;;1.73;;
19191;SDS011;9728;48.194;16.346;2023-06-22T04:28:11;2.78;;;1.90;;
19191;SDS011;9728;48.194;16.346;2023-06-22T04:33:16;3.67;;;2.40;;
19191;SDS011;9728;48.194;16.346;2023-06-22T04:38:20;4.05;;;2.20;;
19191;SDS011;9728;48.194;16.346;2023-06-22T04:43:24;5.20;;;2.05;;
19191;SDS011;9728;48.194;16.346;2023-06-22T04:48:28;4.03;;;2.10;;
19191;SDS011;9728;48.194;16.346;2023-06-22T04:53:34;4.65;;;2.10;;
19191;SDS011;9728;48.194;16.346;2023-06-22T04:58:37;3.45;;;1.95;;
19191;SDS011;9728;48.194;16.346;2023-06-22T05:03:42;6.72;;;2.10;;
19191;SDS011;9728;48.194;16.346;2023-06-22T05:08:46;3.60;;;1.90;;
19191;SDS011;9728;48.194;16.346;2023-06-22T05:13:49;2.30;;;1.70;;
19191;SDS011;9728;48.194;16.346;2023-06-22T05:18:54;5.30;;;2.15;;
19191;SDS011;9728;48.194;16.346;2023-06-22T05:23:58;2.50;;;1.73;;
19191;SDS011;9728;48.194;16.346;2023-06-22T05:29:04;4.78;;;2.10;;
19191;SDS011;9728;48.194;16.346;2023-06-22T05:34:09;3.13;;;2.15;;
19191;SDS011;9728;48.194;16.346;2023-06-22T05:39:13;2.47;;;1.88;;
19191;SDS011;9728;48.194;16.346;2023-06-22T05:44:17;5.20;;;2.35;;
19191;SDS011;9728;48.194;16.346;2023-06-22T05:49:22;5.10;;;2.72;;
19191;SDS011;9728;48.194;16.346;2023-06-22T05:54:31;4.05;;;1.95;;
19191;SDS011;9728;48.194;16.346;2023-06-22T05:59:34;5.32;;;2.42;;
19191;SDS011;9728;48.194;16.346;2023-06-22T06:04:39;3.83;;;2.00;;
19191;SDS011;9728;48.194;16.346;2023-06-22T06:09:42;3.38;;;1.85;;
19191;SDS011;9728;48.194;16.346;2023-06-22T06:14:46;3.75;;;2.50;;
19191;SDS011;9728;48.194;16.346;2023-06-22T06:19:50;3.33;;;1.90;;
19191;SDS011;9728;48.194;16.346;2023-06-22T06:24:54;3.30;;;1.90;;
19191;SDS011;9728;48.194;16.346;2023-06-22T06:29:57;3.33;;;2.30;;
19191;SDS011;9728;48.194;16.346;2023-06-22T06:35:02;4.18;;;2.30;;
19191;SDS011;9728;48.194;16.346;2023-06-22T06:40:06;5.30;;;2.60;;
19191;SDS011;9728;48.194;16.346;2023-06-22T06:45:12;2.85;;;2.22;;
19191;SDS011;9728;48.194;16.346;2023-06-22T06:50:19;7.65;;;2.70;;
19191;SDS011;9728;48.194;16.346;2023-06-22T06:55:22;5.78;;;2.83;;
19191;SDS011;9728;48.194;16.346;2023-06-22T07:00:26;10.50;;;5.20;;
19191;SDS011;9728;48.194;16.346;2023-06-22T07:05:32;6.00;;;3.30;;
19191;SDS011;9728;48.194;16.346;2023-06-22T07:10:35;5.38;;;3.03;;
19191;SDS011;9728;48.194;16.346;2023-06-22T07:15:38;4.65;;;3.05;;
19191;SDS011;9728;48.194;16.346;2023-06-22T07:20:43;6.85;;;4.13;;
19191;SDS011;9728;48.194;16.346;2023-06-22T07:25:47;7.68;;;4.07;;
19191;SDS011;9728;48.194;16.346;2023-06-22T07:30:50;5.50;;;3.65;;
19191;SDS011;9728;48.194;16.346;2023-06-22T07:35:55;4.60;;;3.58;;
19191;SDS011;9728;48.194;16.346;2023-06-22T07:40:59;4.65;;;3.58;;
19191;SDS011;9728;48.194;16.346;2023-06-22T07:46:02;5.85;;;4.00;;
19191;SDS011;9728;48.194;16.346;2023-06-22T07:51:07;6.07;;;4.20;;
19191;SDS011;9728;48.194;16.346;2023-06-22T07:56:10;6.38;;;4.55;;
19191;SDS011;9728;48.194;16.346;2023-06-22T08:01:14;6.40;;;4.05;;
19191;SDS011;9728;48.194;16.346;2023-06-22T08:06:19;6.70;;;4.00;;
19191;SDS011;9728;48.194;16.346;2023-06-22T08:11:23;8.52;;;4.47;;
19191;SDS011;9728;48.194;16.346;2023-06-22T08:16:27;7.35;;;4.28;;
19191;SDS011;9728;48.194;16.346;2023-06-22T08:21:32;7.38;;;3.38;;
19191;SDS011;9728;48.194;16.346;2023-06-22T08:26:35;7.28;;;4.90;;
19191;SDS011;9728;48.194;16.346;2023-06-22T08:31:39;5.78;;;3.80;;
19191;SDS011;9728;48.194;16.346;2023-06-22T08:36:43;6.53;;;4.45;;
19191;SDS011;9728;48.194;16.346;2023-06-22T08:41:53;7.32;;;4.60;;
19191;SDS011;9728;48.194;16.346;2023-06-22T08:46:57;8.00;;;4.47;;
19191;SDS011;9728;48.194;16.346;2023-06-22T08:52:01;6.97;;;4.32;;
19191;SDS011;9728;48.194;16.346;2023-06-22T08:57:06;5.03;;;4.05;;
19191;SDS011;9728;48.194;16.346;2023-06-22T09:02:10;9.40;;;3.65;;
19191;SDS011;9728;48.194;16.346;2023-06-22T09:07:14;6.30;;;4.43;;
19191;SDS011;9728;48.194;16.346;2023-06-22T09:12:23;6.72;;;4.55;;
19191;SDS011;9728;48.194;16.346;2023-06-22T09:17:28;7.07;;;4.20;;
19191;SDS011;9728;48.194;16.346;2023-06-22T09:22:34;5.43;;;4.25;;
19191;SDS011;9728;48.194;16.346;2023-06-22T09:27:37;11.68;;;5.00;;
19191;SDS011;9728;48.194;16.346;2023-06-22T09:32:41;7.13;;;3.60;;
19191;SDS011;9728;48.194;16.346;2023-06-22T09:37:47;7.78;;;4.28;;
19191;SDS011;9728;48.194;16.346;2023-06-22T09:42:50;9.05;;;4.72;;
19191;SDS011;9728;48.194;16.346;2023-06-22T09:47:53;7.57;;;4.32;;
19191;SDS011;9728;48.194;16.346;2023-06-22T09:52:58;5.60;;;4.32;;
19191;SDS011;9728;48.194;16.346;2023-06-22T09:58:01;5.70;;;4.22;;
19191;SDS011;9728;48.194;16.346;2023-06-22T10:03:05;5.07;;;3.65;;
19191;SDS011;9728;48.194;16.346;2023-06-22T10:08:10;4.95;;;3.90;;
19191;SDS011;9728;48.194;16.346;2023-06-22T10:13:14;4.88;;;3.90;;
19191;SDS011;9728;48.194;16.346;2023-06-22T10:18:17;5.55;;;3.80;;
19191;SDS011;9728;48.194;16.346;2023-06-22T10:23:23;6.30;;;3.88;;
19191;SDS011;9728;48.194;16.346;2023-06-22T10:28:26;4.07;;;3.38;;
19191;SDS011;9728;48.194;16.346;2023-06-22T10:33:33;4.78;;;3.28;;
19191;SDS011;9728;48.194;16.346;2023-06-22T10:38:38;7.50;;;3.28;;
19191;SDS011;9728;48.194;16.346;2023-06-22T10:43:41;5.68;;;2.70;;
19191;SDS011;9728;48.194;16.346;2023-06-22T10:48:44;4.10;;;2.58;;
19191;SDS011;9728;48.194;16.346;2023-06-22T10:53:49;3.72;;;2.05;;
19191;SDS011;9728;48.194;16.346;2023-06-22T10:58:53;4.20;;;2.08;;
19191;SDS011;9728;48.194;16.346;2023-06-22T11:03:56;3.50;;;2.67;;
19191;SDS011;9728;48.194;16.346;2023-06-22T11:09:01;2.42;;;2.22;;
19191;SDS011;9728;48.194;16.346;2023-06-22T11:14:23;5.05;;;2.42;;
19191;SDS011;9728;48.194;16.346;2023-06-22T11:19:27;3.58;;;2.55;;
19191;SDS011;9728;48.194;16.346;2023-06-22T11:24:31;5.03;;;3.20;;
19191;SDS011;9728;48.194;16.346;2023-06-22T11:29:35;5.45;;;3.08;;
19191;SDS011;9728;48.194;16.346;2023-06-22T11:34:39;4.30;;;3.50;;
19191;SDS011;9728;48.194;16.346;2023-06-22T11:39:44;10.15;;;3.72;;
19191;SDS011;9728;48.194;16.346;2023-06-22T11:45:00;6.03;;;3.05;;
19191;SDS011;9728;48.194;16.346;2023-06-22T11:50:03;6.03;;;2.88;;
19191;SDS011;9728;48.194;16.346;2023-06-22T11:55:09;3.70;;;2.50;;
19191;SDS011;9728;48.194;16.346;2023-06-22T12:00:13;4.72;;;2.38;;
19191;SDS011;9728;48.194;16.346;2023-06-22T12:05:19;4.45;;;2.00;;
19191;SDS011;9728;48.194;16.346;2023-06-22T12:10:25;4.57;;;2.78;;
19191;SDS011;9728;48.194;16.346;2023-06-22T12:15:31;6.85;;;2.30;;
19191;SDS011;9728;48.194;16.346;2023-06-22T12:20:35;3.10;;;2.00;;
19191;SDS011;9728;48.194;16.346;2023-06-22T12:25:40;8.55;;;2.70;;
19191;SDS011;9728;48.194;16.346;2023-06-22T12:30:43;4.30;;;2.33;;
19191;SDS011;9728;48.194;16.346;2023-06-22T12:35:46;4.10;;;2.20;;
19191;SDS011;9728;48.194;16.346;2023-06-22T12:40:52;3.38;;;2.15;;
19191;SDS011;9728;48.194;16.346;2023-06-22T12:45:56;5.35;;;2.72;;
19191;SDS011;9728;48.194;16.346;2023-06-22T12:51:00;3.47;;;2.10;;
19191;SDS011;9728;48.194;16.346;2023-06-22T12:56:05;2.72;;;2.33;;
19191;SDS011;9728;48.194;16.346;2023-06-22T13:01:08;5.05;;;2.50;;
19191;SDS011;9728;48.194;16.346;2023-06-22T13:06:12;3.15;;;2.03;;
19191;SDS011;9728;48.194;16.346;2023-06-22T13:11:16;5.95;;;2.38;;
19191;SDS011;9728;48.194;16.346;2023-06-22T13:16:20;5.32;;;2.60;;
19191;SDS011;9728;48.194;16.346;2023-06-22T13:21:23;7.78;;;3.08;;
19191;SDS011;9728;48.194;16.346;2023-06-22T13:26:28;3.33;;;2.80;;
19191;SDS011;9728;48.194;16.346;2023-06-22T13:31:32;3.60;;;2.50;;
19191;SDS011;9728;48.194;16.346;2023-06-22T13:36:35;3.05;;;2.63;;
19191;SDS011;9728;48.194;16.346;2023-06-22T13:41:40;4.47;;;2.33;;
19191;SDS011;9728;48.194;16.346;2023-06-22T13:46:45;3.72;;;2.40;;
19191;SDS011;9728;48.194;16.346;2023-06-22T13:51:48;2.92;;;2.47;;
19191;SDS011;9728;48.194;16.346;2023-06-22T13:56:53;4.18;;;2.50;;
19191;SDS011;9728;48.194;16.346;2023-06-22T14:01:56;5.82;;;2.72;;
19191;SDS011;9728;48.194;16.346;2023-06-22T14:06:59;4.22;;;2.60;;
19191;SDS011;9728;48.194;16.346;2023-06-22T14:12:05;4.38;;;2.60;;
19191;SDS011;9728;48.194;16.346;2023-06-22T14:17:09;6.72;;;2.47;;
19191;SDS011;9728;48.194;16.346;2023-06-22T14:22:13;5.63;;;2.92;;
19191;SDS011;9728;48.194;16.346;2023-06-22T14:27:18;3.15;;;2.85;;
19191;SDS011;9728;48.194;16.346;2023-06-22T14:32:21;5.28;;;2.63;;
19191;SDS011;9728;48.194;16.346;2023-06-22T14:37:25;5.30;;;2.65;;
19191;SDS011;9728;48.194;16.346;2023-06-22T14:42:30;4.65;;;2.63;;
19191;SDS011;9728;48.194;16.346;2023-06-22T14:47:33;5.75;;;3.00;;
19191;SDS011;9728;48.194;16.346;2023-06-22T14:52:37;4.22;;;2.67;;
19191;SDS011;9728;48.194;16.346;2023-06-22T14:57:42;4.80;;;2.45;;
19191;SDS011;9728;48.194;16.346;2023-06-22T15:02:45;4.07;;;2.50;;
19191;SDS011;9728;48.194;16.346;2023-06-22T15:07:49;3.67;;;3.00;;
19191;SDS011;9728;48.194;16.346;2023-06-22T15:12:54;4.13;;;2.97;;
19191;SDS011;9728;48.194;16.346;2023-06-22T15:17:57;4.43;;;3.10;;
19191;SDS011;9728;48.194;16.346;2023-06-22T15:23:00;5.70;;;2.72;;
19191;SDS011;9728;48.194;16.346;2023-06-22T15:28:05;5.72;;;3.15;;
19191;SDS011;9728;48.194;16.346;2023-06-22T15:33:09;13.50;;;3.35;;
19191;SDS011;9728;48.194;16.346;2023-06-22T15:38:12;7.13;;;3.40;;
19191;SDS011;9728;48.194;16.346;2023-06-22T15:43:17;4.57;;;2.83;;
19191;SDS011;9728;48.194;16.346;2023-06-22T15:48:21;6.07;;;3.35;;
19191;SDS011;9728;48.194;16.346;2023-06-22T15:53:25;5.20;;;3.03;;
19191;SDS011;9728;48.194;16.346;2023-06-22T15:58:30;5.13;;;3.03;;
19191;SDS011;9728;48.194;16.346;2023-06-22T16:03:33;5.30;;;3.05;;
19191;SDS011;9728;48.194;16.346;2023-06-22T16:08:37;5.57;;;3.38;;
19191;SDS011;9728;48.194;16.346;2023-06-22T16:13:41;4.95;;;3.22;;
19191;SDS011;9728;48.194;16.346;2023-06-22T16:18:47;5.70;;;3.40;;
19191;SDS011;9728;48.194;16.346;2023-06-22T16:23:51;5.07;;;3.35;;
19191;SDS011;9728;48.194;16.346;2023-06-22T16:28:56;5.38;;;3.40;;
19191;SDS011;9728;48.194;16.346;2023-06-22T16:34:01;5.22;;;2.97;;
19191;SDS011;9728;48.194;16.346;2023-06-22T16:39:05;3.50;;;3.20;;
19191;SDS011;9728;48.194;16.346;2023-06-22T16:44:10;4.40;;;3.00;;
19191;SDS011;9728;48.194;16.346;2023-06-22T16:49:13;3.75;;;3.17;;
19191;SDS011;9728;48.194;16.346;2023-06-22T16:54:17;3.83;;;3.50;;
19191;SDS011;9728;48.194;16.346;2023-06-22T16:59:22;4.63;;;3.38;;
19191;SDS011;9728;48.194;16.346;2023-06-22T17:04:25;5.57;;;4.00;;
19191;SDS011;9728;48.194;16.346;2023-06-22T17:09:31;3.90;;;3.22;;
19191;SDS011;9728;48.194;16.346;2023-06-22T17:14:36;4.10;;;3.38;;
19191;SDS011;9728;48.194;16.346;2023-06-22T17:19:41;4.47;;;3.95;;
19191;SDS011;9728;48.194;16.346;2023-06-22T17:24:45;4.70;;;3.25;;
19191;SDS011;9728;48.194;16.346;2023-06-22T17:29:51;3.95;;;3.10;;
19191;SDS011;9728;48.194;16.346;2023-06-22T17:35:08;3.60;;;3.30;;
19191;SDS011;9728;48.194;16.346;2023-06-22T17:40:13;5.25;;;3.35;;
19191;SDS011;9728;48.194;16.346;2023-06-22T17:45:19;4.07;;;3.67;;
19191;SDS011;9728;48.194;16.346;2023-06-22T17:50:24;4.43;;;3.20;;
19191;SDS011;9728;48.194;16.346;2023-06-22T17:55:28;4.88;;;3.63;;
19191;SDS011;9728;48.194;16.346;2023-06-22T18:00:33;5.00;;;3.40;;
19191;SDS011;9728;48.194;16.346;2023-06-22T18:05:37;8.93;;;4.30;;
19191;SDS011;9728;48.194;16.346;2023-06-22T18:10:41;6.90;;;4.45;;
19191;SDS011;9728;48.194;16.346;2023-06-22T18:15:47;5.45;;;3.85;;
19191;SDS011;9728;48.194;16.346;2023-06-22T18:20:52;7.22;;;4.20;;
19191;SDS011;9728;48.194;16.346;2023-06-22T18:25:58;5.65;;;4.13;;
19191;SDS011;9728;48.194;16.346;2023-06-22T18:31:03;4.63;;;3.47;;
19191;SDS011;9728;48.194;16.346;2023-06-22T18:36:08;6.57;;;3.80;;
19191;SDS011;9728;48.194;16.346;2023-06-22T18:41:22;6.50;;;4.40;;
19191;SDS011;9728;48.194;16.346;2023-06-22T18:46:36;6.55;;;4.82;;
19191;SDS011;9728;48.194;16.346;2023-06-22T18:51:48;4.93;;;4.18;;
19191;SDS011;9728;48.194;16.346;2023-06-22T18:56:53;7.85;;;4.25;;
19191;SDS011;9728;48.194;16.346;2023-06-22T19:02:01;4.13;;;3.72;;
19191;SDS011;9728;48.194;16.346;2023-06-22T19:07:05;7.15;;;4.32;;
19191;SDS011;9728;48.194;16.346;2023-06-22T19:12:16;4.95;;;3.70;;
19191;SDS011;9728;48.194;16.346;2023-06-22T19:17:22;5.30;;;3.90;;
19191;SDS011;9728;48.194;16.346;2023-06-22T19:22:40;6.43;;;3.75;;
19191;SDS011;9728;48.194;16.346;2023-06-22T19:27:51;4.82;;;3.83;;
19191;SDS011;9728;48.194;16.346;2023-06-22T19:32:57;7.45;;;3.78;;
19191;SDS011;9728;48.194;16.346;2023-06-22T19:38:01;5.07;;;4.30;;
19191;SDS011;9728;48.194;16.346;2023-06-22T19:43:05;5.25;;;3.92;;
19191;SDS011;9728;48.194;16.346;2023-06-22T19:48:10;7.88;;;4.10;;
19191;SDS011;9728;48.194;16.346;2023-06-22T19:53:15;8.85;;;4.00;;
19191;SDS011;9728;48.194;16.346;2023-06-22T19:58:19;4.55;;;3.42;;
19191;SDS011;9728;48.194;16.346;2023-06-22T20:03:27;5.80;;;3.40;;
19191;SDS011;9728;48.194;16.346;2023-06-22T20:08:38;6.00;;;3.25;;
19191;SDS011;9728;48.194;16.346;2023-06-22T20:13:46;5.63;;;3.70;;
19191;SDS011;9728;48.194;16.346;2023-06-22T20:19:04;4.68;;;3.40;;
19191;SDS011;9728;48.194;16.346;2023-06-22T20:24:08;5.28;;;3.90;;
19191;SDS011;9728;48.194;16.346;2023-06-22T20:29:23;4.85;;;3.53;;
19191;SDS011;9728;48.194;16.346;2023-06-22T20:34:33;4.45;;;3.28;;
19191;SDS011;9728;48.194;16.346;2023-06-22T20:39:37;6.00;;;3.53;;
19191;SDS011;9728;48.194;16.346;2023-06-22T20:44:41;4.70;;;3.95;;
19191;SDS011;9728;48.194;16.346;2023-06-22T20:49:48;6.38;;;3.95;;
19191;SDS011;9728;48.194;16.346;2023-06-22T20:54:52;5.47;;;4.00;;
19191;SDS011;9728;48.194;16.346;2023-06-22T20:59:56;7.55;;;4.25;;
19191;SDS011;9728;48.194;16.346;2023-06-22T21:05:02;5.00;;;3.85;;
19191;SDS011;9728;48.194;16.346;2023-06-22T21:10:06;5.75;;;4.07;;
19191;SDS011;9728;48.194;16.346;2023-06-22T21:15:10;6.53;;;3.53;;
19191;SDS011;9728;48.194;16.346;2023-06-22T21:20:14;5.88;;;3.95;;
19191;SDS011;9728;48.194;16.346;2023-06-22T21:25:18;5.75;;;4.30;;
19191;SDS011;9728;48.194;16.346;2023-06-22T21:30:21;6.07;;;4.57;;
19191;SDS011;9728;48.194;16.346;2023-06-22T21:35:26;6.55;;;4.55;;
19191;SDS011;9728;48.194;16.346;2023-06-22T21:40:30;5.30;;;4.30;;
19191;SDS011;9728;48.194;16.346;2023-06-22T21:45:33;5.50;;;4.25;;
19191;SDS011;9728;48.194;16.346;2023-06-22T21:50:39;6.95;;;4.80;;
19191;SDS011;9728;48.194;16.346;2023-06-22T21:55:42;6.25;;;4.57;;
19191;SDS011;9728;48.194;16.346;2023-06-22T22:00:46;6.50;;;4.82;;
19191;SDS011;9728;48.194;16.346;2023-06-22T22:05:51;5.15;;;4.35;;
19191;SDS011;9728;48.194;16.346;2023-06-22T22:10:54;6.47;;;4.75;;
19191;SDS011;9728;48.194;16.346;2023-06-22T22:15:58;9.27;;;5.57;;
19191;SDS011;9728;48.194;16.346;2023-06-22T22:21:03;7.30;;;4.88;;
19191;SDS011;9728;48.194;16.346;2023-06-22T22:26:06;7.53;;;5.30;;
19191;SDS011;9728;48.194;16.346;2023-06-22T22:31:09;8.13;;;5.32;;
19191;SDS011;9728;48.194;16.346;2023-06-22T22:36:14;8.90;;;5.72;;
19191;SDS011;9728;48.194;16.346;2023-06-22T22:41:17;7.35;;;5.55;;
19191;SDS011;9728;48.194;16.346;2023-06-22T22:46:21;8.75;;;6.25;;
19191;SDS011;9728;48.194;16.346;2023-06-22T22:51:26;8.48;;;5.75;;
19191;SDS011;9728;48.194;16.346;2023-06-22T22:56:29;7.20;;;5.20;;
19191;SDS011;9728;48.194;16.346;2023-06-22T23:01:33;6.22;;;5.13;;
19191;SDS011;9728;48.194;16.346;2023-06-22T23:06:37;7.95;;;6.05;;
19191;SDS011;9728;48.194;16.346;2023-06-22T23:11:41;8.68;;;5.30;;
19191;SDS011;9728;48.194;16.346;2023-06-22T23:16:44;7.25;;;5.50;;
19191;SDS011;9728;48.194;16.346;2023-06-22T23:21:49;8.02;;;5.45;;
19191;SDS011;9728;48.194;16.346;2023-06-22T23:26:52;9.05;;;5.45;;
19191;SDS011;9728;48.194;16.346;2023-06-22T23:31:58;7.13;;;5.00;;
19191;SDS011;9728;48.194;16.346;2023-06-22T23:37:02;10.35;;;6.53;;
19191;SDS011;9728;48.194;16.346;2023-06-22T23:42:06;7.90;;;5.47;;
19191;SDS011;9728;48.194;16.346;2023-06-22T23:47:12;9.48;;;5.57;;
19191;SDS011;9728;48.194;16.346;2023-06-22T23:52:16;6.88;;;5.25;;
19191;SDS011;9728;48.194;16.346;2023-06-22T23:57:20;9.40;;;5.30;;
